Time;durP1;ratioP1;P1;durP2;ratioP2;P2;SDS_P1;SDS_P2;PMS_P1;PMS_P2;Temp;Humidity;BMP_temperature;BMP_pressure;BME280_temperature;BME280_humidity;BME280_pressure;Samples;Min_cycle;Max_cycle;Signal;HPM_P1;HPM_P2
2024/01/04 00:00:09;;;;;;;10.20;5.60;;;;;;;8.55;70.87;99094.86;108043;1275;21991;-59
2024/01/04 00:02:35;;;;;;;10.50;6.30;;;;;;;8.54;71.47;99095.94;108104;1284;24339;-59
2024/01/04 00:05:03;;;;;;;13.80;6.40;;;;;;;8.54;71.50;99097.33;108068;1285;21992;-59
2024/01/04 00:07:29;;;;;;;9.20;5.50;;;;;;;8.54;71.34;99096.30;108061;1281;21986;-61
2024/01/04 00:09:54;;;;;;;10.70;6.00;;;;;;;8.56;71.49;99096.06;108037;1275;21991;-60
2024/01/04 00:12:20;;;;;;;10.60;6.20;;;;;;;8.58;71.63;99099.52;108060;1282;22775;-61
2024/01/04 00:14:45;;;;;;;11.50;6.40;;;;;;;8.60;71.63;99099.30;108110;1273;21982;-61
2024/01/04 00:17:11;;;;;;;9.90;5.80;;;;;;;8.62;71.48;99101.31;108074;1285;22025;-61
2024/01/04 00:19:36;;;;;;;10.30;6.20;;;;;;;8.63;71.32;99101.83;108230;1280;21986;-58
2024/01/04 00:22:02;;;;;;;7.80;5.30;;;;;;;8.63;71.20;99104.63;108056;1285;22497;-61
2024/01/04 00:24:28;;;;;;;14.40;6.10;;;;;;;8.62;70.93;99100.64;108011;1285;22006;-61
2024/01/04 00:26:54;;;;;;;10.60;5.70;;;;;;;8.60;70.89;99102.77;108019;1285;22010;-61
2024/01/04 00:29:19;;;;;;;13.90;6.10;;;;;;;8.58;70.69;99095.14;108020;1285;22038;-59
2024/01/04 00:31:45;;;;;;;12.50;6.30;;;;;;;8.57;70.62;99094.64;108202;1285;21985;-60
2024/01/04 00:34:10;;;;;;;11.80;6.80;;;;;;;8.56;70.62;99092.39;108161;1285;21968;-62
2024/01/04 00:36:36;;;;;;;10.40;5.60;;;;;;;8.55;70.46;99094.86;108127;1284;21993;-61
2024/01/04 00:39:02;;;;;;;10.00;5.70;;;;;;;8.54;70.65;99101.20;108086;1280;22606;-59
2024/01/04 00:41:27;;;;;;;10.60;5.50;;;;;;;8.50;70.49;99100.75;108141;1285;21993;-59
2024/01/04 00:43:53;;;;;;;10.50;5.90;;;;;;;8.48;70.45;99102.70;108250;1285;22075;-59
2024/01/04 00:46:18;;;;;;;9.10;4.80;;;;;;;8.45;70.49;99101.35;107559;1285;1002299;-58
2024/01/04 00:48:44;;;;;;;11.50;6.40;;;;;;;8.42;70.24;99103.89;107188;1286;1007246;-59
2024/01/04 00:51:09;;;;;;;13.70;6.10;;;;;;;8.36;69.99;99098.25;107446;1284;1003173;-58
2024/01/04 00:53:35;;;;;;;10.70;5.60;;;;;;;8.32;70.00;99095.89;107426;1284;1002520;-60
2024/01/04 00:56:00;;;;;;;11.00;5.50;;;;;;;8.27;70.01;99098.98;107581;1286;1003829;-59
2024/01/04 00:58:26;;;;;;;9.20;5.70;;;;;;;8.20;69.71;99100.54;108150;1286;21986;-61
2024/01/04 01:00:52;;;;;;;10.80;5.70;;;;;;;8.15;69.73;99099.27;108056;1285;21984;-61
2024/01/04 01:03:17;;;;;;;11.10;5.80;;;;;;;8.12;69.78;99094.08;108238;1284;21991;-61
2024/01/04 01:05:43;;;;;;;10.30;6.20;;;;;;;8.10;70.03;99092.21;108053;1286;21992;-58
2024/01/04 01:08:08;;;;;;;9.70;5.70;;;;;;;8.08;70.03;99086.84;108020;1285;21994;-60
2024/01/04 01:10:34;;;;;;;10.70;5.60;;;;;;;8.07;70.12;99086.35;108068;1285;22024;-58
2024/01/04 01:13:00;;;;;;;8.80;5.60;;;;;;;8.03;70.03;99091.48;108226;1281;23618;-61
2024/01/04 01:15:27;;;;;;;11.10;6.10;;;;;;;7.99;70.36;99092.45;108067;1285;21992;-59
2024/01/04 01:17:53;;;;;;;10.80;5.90;;;;;;;7.97;70.75;99095.47;107281;1281;1006017;-61
2024/01/04 01:20:18;;;;;;;10.30;5.90;;;;;;;7.95;71.07;99093.08;108205;1284;22002;-61
2024/01/04 01:22:44;;;;;;;10.40;5.20;;;;;;;7.95;71.22;99093.08;108208;1285;22152;-61
2024/01/04 01:25:10;;;;;;;11.30;5.90;;;;;;;7.97;71.01;99095.63;108346;1285;21996;-59
2024/01/04 01:27:36;;;;;;;8.80;5.20;;;;;;;7.99;71.18;99098.23;108244;1286;21956;-59
2024/01/04 01:30:02;;;;;;;10.60;5.90;;;;;;;8.00;71.36;99099.92;108181;1284;21992;-62
2024/01/04 01:32:29;;;;;;;9.70;4.90;;;;;;;8.02;71.39;99094.84;108111;1285;21988;-59
2024/01/04 01:34:54;;;;;;;9.40;5.30;;;;;;;8.03;71.28;99095.16;108080;1273;21977;-59
2024/01/04 01:37:21;;;;;;;10.60;5.10;;;;;;;8.02;70.99;99098.86;108117;1282;21993;-60
2024/01/04 01:39:46;;;;;;;10.00;5.40;;;;;;;8.01;71.05;99100.27;108286;1285;21986;-61
2024/01/04 01:42:12;;;;;;;9.00;4.60;;;;;;;8.01;71.29;99102.36;108257;1284;21983;-59
2024/01/04 01:44:38;;;;;;;10.70;5.20;;;;;;;8.02;71.25;99104.10;108153;1274;21978;-59
2024/01/04 01:47:04;;;;;;;13.00;5.30;;;;;;;8.03;71.64;99101.79;108183;1285;21989;-62
2024/01/04 01:49:30;;;;;;;10.50;6.20;;;;;;;8.03;71.64;99097.08;108230;1285;22443;-59
2024/01/04 01:51:56;;;;;;;9.20;5.10;;;;;;;8.01;71.47;99099.05;108127;1285;21997;-58
2024/01/04 01:54:21;;;;;;;11.20;6.50;;;;;;;7.98;71.58;99102.07;108141;1285;22003;-59
2024/01/04 01:56:47;;;;;;;10.20;5.80;;;;;;;7.95;71.62;99100.42;108219;1285;21987;-59
2024/01/04 01:59:13;;;;;;;9.90;5.50;;;;;;;7.92;71.76;99101.71;108143;1285;21995;-58
2024/01/04 02:01:38;;;;;;;9.90;5.40;;;;;;;7.91;71.81;99106.09;108193;1274;21985;-59
2024/01/04 02:04:04;;;;;;;10.60;5.40;;;;;;;7.92;72.22;99108.17;108186;1285;21988;-61
2024/01/04 02:06:30;;;;;;;8.90;4.90;;;;;;;7.93;72.23;99109.36;108105;1285;21994;-59
2024/01/04 02:08:55;;;;;;;8.00;4.80;;;;;;;7.97;72.43;99109.11;108090;1285;22012;-59
2024/01/04 02:11:22;;;;;;;7.60;4.90;;;;;;;8.03;72.97;99105.98;108070;1281;22453;-60
2024/01/04 02:13:48;;;;;;;8.90;4.70;;;;;;;8.12;73.53;99104.93;108169;1285;23452;-61
2024/01/04 02:16:14;;;;;;;6.90;4.20;;;;;;;8.18;73.53;99105.14;108248;1285;21990;-59
2024/01/04 02:18:39;;;;;;;11.00;4.90;;;;;;;8.23;73.34;99106.44;108142;1281;21988;-59
2024/01/04 02:21:06;;;;;;;8.00;4.40;;;;;;;8.27;73.27;99104.61;107974;1284;21993;-59
2024/01/04 02:23:31;;;;;;;7.80;4.70;;;;;;;8.29;73.00;99105.95;108106;1279;21983;-59
2024/01/04 02:25:57;;;;;;;7.30;4.40;;;;;;;8.30;72.96;99108.17;108077;1284;21991;-60
2024/01/04 02:28:23;;;;;;;8.60;4.50;;;;;;;8.32;72.99;99114.77;108181;1285;21997;-61
2024/01/04 02:30:48;;;;;;;8.50;4.60;;;;;;;8.34;73.33;99120.50;108145;1284;21982;-60
2024/01/04 02:33:14;;;;;;;6.20;4.20;;;;;;;8.35;73.20;99121.00;108308;1285;22450;-59
2024/01/04 02:35:39;;;;;;;8.20;4.40;;;;;;;8.38;73.49;99121.98;108136;1281;21991;-62
2024/01/04 02:38:05;;;;;;;9.50;4.80;;;;;;;8.42;73.60;99120.66;108208;1285;21981;-60
2024/01/04 02:40:31;;;;;;;7.90;4.50;;;;;;;8.46;73.56;99118.65;108073;1284;21992;-60
2024/01/04 02:42:56;;;;;;;6.60;4.20;;;;;;;8.47;73.40;99120.71;108089;1279;22467;-62
2024/01/04 02:45:22;;;;;;;8.50;4.00;;;;;;;8.47;73.17;99124.20;108189;1285;21962;-62
2024/01/04 02:47:47;;;;;;;9.40;4.30;;;;;;;8.47;72.85;99124.37;108046;1285;21994;-62
2024/01/04 02:50:14;;;;;;;8.10;3.90;;;;;;;8.47;73.06;99131.02;108048;1285;21986;-61
2024/01/04 02:52:39;;;;;;;9.40;4.00;;;;;;;8.47;73.17;99133.83;108053;1274;21975;-60
2024/01/04 02:55:06;;;;;;;7.70;4.30;;;;;;;8.48;73.19;99129.64;108215;1285;21986;-59
2024/01/04 02:57:31;;;;;;;6.70;4.20;;;;;;;8.50;73.28;99127.86;108144;1275;21983;-62
2024/01/04 02:59:57;;;;;;;7.30;4.10;;;;;;;8.51;73.32;99124.87;108056;1285;21994;-61
2024/01/04 03:02:22;;;;;;;7.00;3.80;;;;;;;8.50;72.94;99122.27;108215;1285;24314;-61
2024/01/04 03:04:48;;;;;;;6.40;3.50;;;;;;;8.48;72.88;99118.25;108342;1285;21990;-60
2024/01/04 03:07:13;;;;;;;7.10;3.80;;;;;;;8.44;72.71;99114.48;108328;1285;21973;-60
2024/01/04 03:09:39;;;;;;;6.60;3.70;;;;;;;8.37;72.57;99117.64;108148;1285;21989;-61
2024/01/04 03:12:05;;;;;;;7.90;4.30;;;;;;;8.29;72.69;99115.71;108055;1285;21996;-61
2024/01/04 03:14:30;;;;;;;7.50;4.60;;;;;;;8.25;73.27;99119.98;108065;1275;21994;-58
2024/01/04 03:16:56;;;;;;;6.20;3.80;;;;;;;8.25;74.09;99123.67;108047;1285;22000;-58
2024/01/04 03:19:21;;;;;;;7.60;4.00;;;;;;;8.29;74.51;99120.27;108025;1285;21997;-58
2024/01/04 03:21:47;;;;;;;7.00;3.80;;;;;;;8.35;74.42;99125.04;108038;1285;21983;-59
2024/01/04 03:24:13;;;;;;;5.80;3.20;;;;;;;8.40;74.07;99126.66;107997;1285;21988;-58
2024/01/04 03:26:38;;;;;;;6.30;3.50;;;;;;;8.44;73.84;99127.77;108016;1284;21996;-59
2024/01/04 03:29:04;;;;;;;7.10;3.90;;;;;;;8.45;73.58;99117.45;108053;1286;21991;-59
2024/01/04 03:31:29;;;;;;;7.60;4.30;;;;;;;8.45;73.17;99114.66;108095;1286;21994;-61
2024/01/04 03:33:55;;;;;;;8.20;4.40;;;;;;;8.44;73.09;99114.33;108148;1284;22023;-58
2024/01/04 03:36:20;;;;;;;7.00;3.70;;;;;;;8.40;72.88;99110.57;108314;1280;21997;-61
2024/01/04 03:38:46;;;;;;;7.00;3.70;;;;;;;8.36;72.86;99110.15;108344;1286;21982;-59
2024/01/04 03:41:12;;;;;;;8.00;3.70;;;;;;;8.31;72.66;99107.81;108193;1280;21984;-58
2024/01/04 03:43:38;;;;;;;7.90;3.70;;;;;;;8.24;72.78;99111.13;108254;1286;21997;-61
2024/01/04 03:46:05;;;;;;;6.00;3.50;;;;;;;8.19;72.94;99121.36;108299;1285;21983;-61
2024/01/04 03:48:31;;;;;;;7.70;3.70;;;;;;;8.15;72.91;99123.73;108367;1285;21988;-60
2024/01/04 03:50:56;;;;;;;9.40;4.60;;;;;;;8.14;72.98;99120.96;108333;1280;21993;-58
2024/01/04 03:53:22;;;;;;;7.60;4.50;;;;;;;8.13;73.78;99119.05;108297;1275;21989;-61
2024/01/04 03:55:48;;;;;;;8.50;4.90;;;;;;;8.13;74.38;99126.92;108243;1285;21987;-59
2024/01/04 03:58:13;;;;;;;7.30;4.20;;;;;;;8.15;74.59;99131.06;108147;1279;22019;-58
2024/01/04 04:00:39;;;;;;;6.00;3.70;;;;;;;8.19;74.96;99136.04;108119;1285;21983;-62
2024/01/04 04:03:05;;;;;;;6.70;3.90;;;;;;;8.23;75.27;99134.73;108077;1285;21986;-61
2024/01/04 04:05:30;;;;;;;9.60;4.00;;;;;;;8.29;75.03;99135.98;108082;1277;23714;-59
2024/01/04 04:07:56;;;;;;;6.80;3.60;;;;;;;8.33;75.10;99135.91;107317;1282;1002600;-61
2024/01/04 04:10:22;;;;;;;8.90;4.00;;;;;;;8.37;74.87;99138.27;108084;1285;21978;-59
2024/01/04 04:12:48;;;;;;;7.80;3.70;;;;;;;8.41;74.89;99136.59;108006;1283;22042;-58
2024/01/04 04:15:14;;;;;;;7.50;3.40;;;;;;;8.47;74.96;99141.19;108081;1283;21984;-61
2024/01/04 04:17:39;;;;;;;6.90;3.80;;;;;;;8.52;74.94;99146.52;108197;1281;22000;-61
2024/01/04 04:20:05;;;;;;;7.50;3.70;;;;;;;8.55;74.97;99155.52;108301;1280;21981;-60
2024/01/04 04:22:31;;;;;;;6.60;3.60;;;;;;;8.59;74.97;99158.41;108290;1285;21985;-57
2024/01/04 04:24:57;;;;;;;8.00;3.60;;;;;;;8.63;74.75;99157.80;108289;1285;21987;-61
2024/01/04 04:27:22;;;;;;;7.80;3.90;;;;;;;8.65;74.83;99155.98;108281;1282;21977;-59
2024/01/04 04:29:48;;;;;;;6.10;3.60;;;;;;;8.67;75.09;99157.70;108244;1285;21983;-61
2024/01/04 04:32:13;;;;;;;6.50;3.90;;;;;;;8.69;75.28;99154.34;108249;1274;21987;-59
2024/01/04 04:34:39;;;;;;;7.60;3.80;;;;;;;8.71;75.09;99153.23;108219;1285;21991;-61
2024/01/04 04:37:05;;;;;;;9.00;3.60;;;;;;;8.73;75.33;99153.52;108109;1285;21990;-61
2024/01/04 04:39:30;;;;;;;6.90;3.60;;;;;;;8.73;75.61;99154.75;108018;1285;23071;-62
2024/01/04 04:41:57;;;;;;;7.10;3.70;;;;;;;8.76;75.69;99151.35;108147;1285;21991;-59
2024/01/04 04:44:23;;;;;;;6.10;3.70;;;;;;;8.81;75.41;99146.53;108179;1285;21982;-59
2024/01/04 04:46:48;;;;;;;5.20;3.20;;;;;;;8.85;75.70;99143.08;108080;1285;21986;-61
2024/01/04 04:49:14;;;;;;;5.70;3.30;;;;;;;8.92;75.69;99144.14;108092;1285;21993;-58
2024/01/04 04:51:39;;;;;;;8.00;3.30;;;;;;;8.98;75.93;99148.35;108030;1280;22210;-62
2024/01/04 04:54:05;;;;;;;5.30;3.00;;;;;;;9.03;75.61;99151.73;108279;1285;21993;-58
2024/01/04 04:56:30;;;;;;;8.90;3.50;;;;;;;9.05;75.64;99152.72;108172;1276;22023;-61
2024/01/04 04:58:56;;;;;;;6.20;3.00;;;;;;;9.11;75.54;99152.58;108047;1283;22177;-62
2024/01/04 05:01:21;;;;;;;5.50;3.10;;;;;;;9.16;75.36;99157.35;108034;1285;21990;-58
2024/01/04 05:03:47;;;;;;;5.80;3.30;;;;;;;9.19;75.08;99156.41;108065;1280;22450;-58
2024/01/04 05:06:12;;;;;;;6.30;3.30;;;;;;;9.19;74.76;99156.59;108059;1273;21992;-61
2024/01/04 05:08:38;;;;;;;6.00;3.40;;;;;;;9.16;74.49;99158.77;108128;1284;21994;-61
2024/01/04 05:11:06;;;;;;;6.50;3.70;;;;;;;9.13;74.23;99160.95;108241;1285;21996;-61
2024/01/04 05:13:32;;;;;;;5.70;3.20;;;;;;;9.10;74.17;99158.02;108197;1278;21977;-60
2024/01/04 05:15:58;;;;;;;4.90;3.10;;;;;;;9.07;74.06;99155.13;108291;1285;21986;-61
2024/01/04 05:18:24;;;;;;;7.40;3.30;;;;;;;9.05;74.13;99152.06;108141;1285;21986;-62
2024/01/04 05:20:50;;;;;;;4.80;2.80;;;;;;;9.04;74.13;99150.85;108124;1278;22039;-58
2024/01/04 05:23:15;;;;;;;5.60;2.70;;;;;;;9.02;74.10;99153.36;108070;1285;22172;-59
2024/01/04 05:25:41;;;;;;;5.40;3.10;;;;;;;8.97;74.00;99155.05;108090;1273;21984;-61
2024/01/04 05:28:06;;;;;;;7.00;3.70;;;;;;;8.91;74.15;99162.01;108184;1285;23686;-59
2024/01/04 05:30:32;;;;;;;4.80;2.80;;;;;;;8.87;74.27;99172.23;108308;1274;21981;-61
2024/01/04 05:32:57;;;;;;;6.80;3.20;;;;;;;8.84;74.70;99175.13;108113;1277;21982;-60
2024/01/04 05:35:23;;;;;;;5.90;3.30;;;;;;;8.86;75.29;99178.73;108100;1271;22080;-60
2024/01/04 05:37:49;;;;;;;6.90;3.60;;;;;;;8.92;75.99;99172.48;108217;1285;22022;-62
2024/01/04 05:40:17;;;;;;;7.10;3.30;;;;;;;8.99;76.25;99171.08;108053;1285;21983;-60
2024/01/04 05:42:42;;;;;;;5.80;2.90;;;;;;;9.07;76.25;99177.00;108035;1285;21988;-63
2024/01/04 05:45:08;;;;;;;5.40;2.80;;;;;;;9.14;76.33;99177.00;108076;1285;22042;-63
2024/01/04 05:47:34;;;;;;;4.80;2.50;;;;;;;9.21;76.06;99181.20;108073;1273;23127;-60
2024/01/04 05:49:59;;;;;;;5.10;2.60;;;;;;;9.27;75.78;99192.07;108095;1280;21984;-62
2024/01/04 05:52:25;;;;;;;4.70;2.60;;;;;;;9.30;75.77;99203.35;108115;1285;23075;-58
2024/01/04 05:54:51;;;;;;;4.80;2.50;;;;;;;9.32;75.51;99203.48;108034;1285;21990;-62
2024/01/04 05:57:17;;;;;;;3.70;2.00;;;;;;;9.34;75.53;99198.38;108023;1285;22047;-61
2024/01/04 05:59:43;;;;;;;5.20;2.30;;;;;;;9.34;75.47;99197.31;108050;1285;22467;-59
2024/01/04 06:02:08;;;;;;;4.40;2.20;;;;;;;9.35;75.23;99194.50;108058;1281;21988;-59
2024/01/04 06:04:34;;;;;;;4.10;2.20;;;;;;;9.36;75.11;99192.71;108017;1277;21998;-57
2024/01/04 06:07:00;;;;;;;4.70;2.70;;;;;;;9.37;75.10;99191.12;108083;1285;22086;-59
2024/01/04 06:09:26;;;;;;;5.30;3.20;;;;;;;9.40;75.12;99189.65;108075;1280;21985;-61
2024/01/04 06:11:51;;;;;;;5.40;3.00;;;;;;;9.43;75.37;99184.14;108265;1273;21988;-60
2024/01/04 06:14:17;;;;;;;5.00;2.80;;;;;;;9.45;75.43;99188.98;108255;1285;22005;-60
2024/01/04 06:16:43;;;;;;;5.70;3.00;;;;;;;9.48;75.58;99190.13;108166;1280;21994;-60
2024/01/04 06:19:09;;;;;;;5.80;3.40;;;;;;;9.51;75.51;99188.82;108185;1286;21971;-60
2024/01/04 06:21:36;;;;;;;6.90;2.80;;;;;;;9.55;75.67;99183.99;108160;1285;21989;-62
2024/01/04 06:24:03;;;;;;;5.60;2.90;;;;;;;9.57;75.53;99176.40;108286;1280;24401;-62
2024/01/04 06:26:28;;;;;;;4.80;2.90;;;;;;;9.61;75.43;99177.88;108176;1274;21988;-62
2024/01/04 06:28:54;;;;;;;7.70;2.60;;;;;;;9.64;75.38;99178.31;108074;1280;21985;-62
2024/01/04 06:31:19;;;;;;;4.40;2.70;;;;;;;9.68;75.41;99182.42;108116;1278;23048;-62
2024/01/04 06:33:45;;;;;;;3.90;2.20;;;;;;;9.72;75.63;99182.30;108049;1285;21985;-62
2024/01/04 06:36:10;;;;;;;4.40;2.20;;;;;;;9.78;75.99;99181.96;108046;1281;21980;-60
2024/01/04 06:38:36;;;;;;;5.70;2.60;;;;;;;9.87;76.23;99182.94;108081;1273;22022;-61
2024/01/04 06:41:03;;;;;;;5.10;2.60;;;;;;;9.95;76.24;99183.41;108118;1274;22019;-62
2024/01/04 06:43:32;;;;;;;5.10;2.40;;;;;;;10.02;76.28;99178.98;108274;1279;21950;-63
2024/01/04 06:45:58;;;;;;;5.60;3.00;;;;;;;10.10;76.48;99182.45;108234;1283;22673;-61
2024/01/04 06:48:24;;;;;;;5.10;3.00;;;;;;;10.17;76.57;99181.73;108156;1285;21994;-60
2024/01/04 06:50:49;;;;;;;6.70;3.30;;;;;;;10.24;76.78;99179.92;108115;1283;21990;-63
2024/01/04 06:53:15;;;;;;;8.00;4.50;;;;;;;10.33;77.02;99184.20;108130;1280;22196;-60
2024/01/04 06:55:41;;;;;;;8.30;4.50;;;;;;;10.44;77.37;99188.63;108067;1280;21985;-60
2024/01/04 06:58:09;;;;;;;8.90;5.00;;;;;;;10.54;77.77;99189.05;108272;1283;21989;-62
2024/01/04 07:00:35;;;;;;;9.20;5.20;;;;;;;10.63;77.40;99183.85;108210;1277;21996;-60
2024/01/04 07:03:01;;;;;;;13.60;6.40;;;;;;;10.69;77.60;99179.11;108100;1278;21991;-60
2024/01/04 07:05:26;;;;;;;10.00;5.00;;;;;;;10.79;77.21;99180.20;108131;1285;21991;-61
2024/01/04 07:07:52;;;;;;;10.40;3.90;;;;;;;10.94;76.51;99176.88;108153;1285;22851;-61
2024/01/04 07:10:17;;;;;;;6.50;2.90;;;;;;;11.04;76.37;99181.13;108109;1276;22008;-60
2024/01/04 07:12:43;;;;;;;3.50;2.00;;;;;;;11.04;76.99;99183.05;108115;1277;21990;-60
2024/01/04 07:15:10;;;;;;;4.50;2.30;;;;;;;11.07;77.60;99188.40;108138;1281;21986;-63
2024/01/04 07:17:35;;;;;;;3.50;2.10;;;;;;;11.13;77.75;99186.95;108140;1277;21985;-63
2024/01/04 07:20:03;;;;;;;4.40;2.10;;;;;;;11.21;77.88;99188.65;108219;1286;21982;-60
2024/01/04 07:22:29;;;;;;;4.00;2.20;;;;;;;11.30;78.18;99190.29;107398;1281;1002515;-62
2024/01/04 07:24:56;;;;;;;4.50;2.20;;;;;;;11.43;77.86;99191.60;108101;1280;21996;-60
2024/01/04 07:27:22;;;;;;;5.30;2.60;;;;;;;11.52;77.65;99190.56;108143;1281;22442;-60
2024/01/04 07:29:47;;;;;;;4.10;2.50;;;;;;;11.59;78.05;99188.38;108140;1286;22069;-62
2024/01/04 07:32:16;;;;;;;4.00;2.00;;;;;;;11.66;77.92;99194.48;108147;1286;22023;-60
2024/01/04 07:34:41;;;;;;;4.60;2.40;;;;;;;11.73;77.74;99192.65;108172;1285;24308;-60
2024/01/04 07:37:07;;;;;;;4.20;2.30;;;;;;;11.78;78.08;99191.05;108123;1285;21996;-59
2024/01/04 07:39:33;;;;;;;5.20;2.60;;;;;;;11.87;78.00;99194.27;108085;1285;21993;-60
2024/01/04 07:41:59;;;;;;;4.40;2.60;;;;;;;11.93;78.22;99191.04;108090;1275;21983;-62
2024/01/04 07:44:24;;;;;;;4.60;2.10;;;;;;;12.02;78.17;99195.83;108098;1285;21987;-60
2024/01/04 07:46:50;;;;;;;5.80;3.10;;;;;;;12.11;78.54;99197.63;108265;1285;22450;-60
2024/01/04 07:49:15;;;;;;;4.30;2.00;;;;;;;12.19;78.57;99199.58;108048;1284;22005;-62
2024/01/04 07:51:41;;;;;;;3.90;2.20;;;;;;;12.26;78.81;99196.87;108191;1280;22015;-63
2024/01/04 07:54:07;;;;;;;4.40;2.50;;;;;;;12.34;79.01;99193.23;108167;1275;22173;-63
2024/01/04 07:56:33;;;;;;;3.90;1.90;;;;;;;12.41;79.26;99196.65;108032;1275;21984;-63
2024/01/04 07:58:58;;;;;;;4.80;2.60;;;;;;;12.51;79.23;99198.90;108055;1275;21984;-63
2024/01/04 08:01:24;;;;;;;3.40;2.30;;;;;;;12.59;79.55;99194.89;108016;1285;21986;-60
2024/01/04 08:03:50;;;;;;;4.70;2.50;;;;;;;12.69;79.62;99196.10;108020;1285;21981;-62
2024/01/04 08:06:15;;;;;;;6.60;3.00;;;;;;;12.79;79.45;99201.33;108059;1285;21992;-61
2024/01/04 08:08:41;;;;;;;4.60;2.80;;;;;;;12.90;79.43;99201.09;108164;1285;21995;-62
2024/01/04 08:11:10;;;;;;;4.30;2.60;;;;;;;12.99;79.71;99201.74;108060;1285;22457;-61
2024/01/04 08:13:35;;;;;;;6.30;2.50;;;;;;;13.12;79.98;99202.65;108020;1281;22023;-61
2024/01/04 08:16:01;;;;;;;5.20;2.60;;;;;;;13.28;80.16;99197.94;108035;1281;21981;-62
2024/01/04 08:18:27;;;;;;;7.10;3.70;;;;;;;13.45;80.17;99193.36;108104;1281;21983;-61
2024/01/04 08:20:52;;;;;;;7.90;3.90;;;;;;;13.64;79.92;99190.42;108046;1285;21986;-63
2024/01/04 08:23:18;;;;;;;8.60;4.00;;;;;;;13.81;79.31;99190.91;108009;1274;21983;-60
2024/01/04 08:25:43;;;;;;;5.50;2.90;;;;;;;13.95;78.41;99187.10;108026;1280;21988;-61
2024/01/04 08:28:09;;;;;;;5.50;2.40;;;;;;;14.07;78.06;99184.63;107918;1285;21991;-61
2024/01/04 08:30:35;;;;;;;5.20;2.80;;;;;;;14.18;77.43;99184.31;108030;1281;22014;-63
2024/01/04 08:33:01;;;;;;;5.20;2.80;;;;;;;14.27;77.58;99181.41;108007;1276;22042;-63
2024/01/04 08:35:26;;;;;;;4.40;2.50;;;;;;;14.35;76.88;99175.95;108021;1285;21985;-61
2024/01/04 08:37:52;;;;;;;4.30;2.10;;;;;;;14.41;76.46;99177.92;108036;1280;22059;-62
2024/01/04 08:40:18;;;;;;;5.10;2.60;;;;;;;14.46;75.69;99175.96;108026;1285;21986;-60
2024/01/04 08:42:44;;;;;;;6.30;3.30;;;;;;;14.47;74.95;99172.19;107982;1285;21982;-61
2024/01/04 08:45:10;;;;;;;6.20;2.90;;;;;;;14.53;75.19;99171.38;108026;1285;21993;-61
2024/01/04 08:47:36;;;;;;;5.50;2.50;;;;;;;14.59;75.20;99166.85;107993;1285;21988;-61
2024/01/04 08:50:02;;;;;;;5.20;2.70;;;;;;;14.64;74.86;99169.10;108033;1285;22027;-61
2024/01/04 08:52:28;;;;;;;3.90;2.40;;;;;;;14.70;74.82;99170.80;108072;1284;21992;-62
2024/01/04 08:54:54;;;;;;;6.90;2.70;;;;;;;14.78;75.61;99168.98;108041;1284;21996;-61
2024/01/04 08:57:19;;;;;;;4.90;1.90;;;;;;;14.83;75.28;99168.00;108017;1275;22026;-61
2024/01/04 08:59:45;;;;;;;5.20;2.10;;;;;;;14.87;74.86;99167.48;107999;1285;22323;-61
2024/01/04 09:02:11;;;;;;;5.60;2.40;;;;;;;14.90;74.32;99165.58;108063;1285;21981;-61
2024/01/04 09:04:36;;;;;;;6.30;2.30;;;;;;;14.93;73.93;99162.94;108028;1285;21983;-61
2024/01/04 09:07:02;;;;;;;5.50;2.50;;;;;;;14.97;73.03;99162.95;108077;1285;22007;-63
2024/01/04 09:09:28;;;;;;;5.30;2.60;;;;;;;15.01;73.22;99165.04;108049;1285;22174;-61
2024/01/04 09:11:53;;;;;;;4.70;2.30;;;;;;;15.04;73.58;99167.91;108023;1285;21985;-61
2024/01/04 09:14:19;;;;;;;5.00;2.20;;;;;;;15.00;72.05;99159.59;108001;1285;21988;-61
2024/01/04 09:16:44;;;;;;;4.70;2.50;;;;;;;15.04;72.06;99156.07;108125;1286;21986;-62
2024/01/04 09:19:17;;;;;;;5.50;2.40;;;;;;;15.06;71.78;99151.37;108111;1276;21991;-59
2024/01/04 09:21:43;;;;;;;5.40;2.50;;;;;;;15.08;71.20;99148.45;108092;1286;21999;-58
2024/01/04 09:24:11;;;;;;;5.50;2.70;;;;;;;15.11;70.95;99147.06;107402;1286;1003078;-58
2024/01/04 09:26:43;;;;;;;4.10;2.40;;;;;;;15.12;70.19;99143.08;108121;1276;21985;-61
2024/01/04 09:29:09;;;;;;;4.50;2.40;;;;;;;15.18;70.20;99140.51;108142;1286;21986;-60
2024/01/04 09:31:35;;;;;;;4.70;2.30;;;;;;;15.23;70.40;99131.05;108100;1280;21991;-59
2024/01/04 09:34:01;;;;;;;3.90;2.20;;;;;;;15.27;70.18;99126.23;108140;1286;21974;-60
2024/01/04 09:36:26;;;;;;;4.40;2.20;;;;;;;15.32;69.68;99123.17;108283;1280;21994;-59
2024/01/04 09:38:52;;;;;;;4.90;2.30;;;;;;;15.38;69.97;99122.70;108128;1286;22100;-61
2024/01/04 09:41:29;;;;;;;4.40;2.80;;;;;;;15.44;70.43;99116.39;108109;1286;21999;-61
2024/01/04 09:43:56;;;;;;;4.70;2.60;;;;;;;15.50;70.76;99110.91;108129;1286;22012;-59
2024/01/04 09:46:24;;;;;;;5.40;2.60;;;;;;;15.56;70.17;99108.30;108160;1275;21996;-59
2024/01/04 09:49:00;;;;;;;5.20;2.30;;;;;;;15.63;70.19;99101.74;108124;1286;22021;-61
2024/01/04 09:51:37;;;;;;;6.20;3.00;;;;;;;15.70;69.77;99097.34;108107;1286;21991;-59
2024/01/04 09:54:03;;;;;;;5.90;2.80;;;;;;;15.75;69.11;99098.27;108134;1286;21990;-60
2024/01/04 09:56:30;;;;;;;5.50;2.80;;;;;;;15.82;69.51;99091.38;108212;1286;21986;-59
2024/01/04 09:58:56;;;;;;;6.00;3.10;;;;;;;15.90;70.01;99086.39;108094;1274;21994;-61
2024/01/04 10:01:33;;;;;;;5.70;3.10;;;;;;;15.98;70.30;99079.76;108122;1286;23637;-59
2024/01/04 10:04:00;;;;;;;6.70;3.20;;;;;;;16.05;69.40;99075.45;108093;1286;21989;-59
2024/01/04 10:06:29;;;;;;;6.70;3.00;;;;;;;16.13;68.65;99075.58;108216;1276;21996;-62
2024/01/04 10:08:56;;;;;;;4.80;2.70;;;;;;;16.20;68.80;99076.25;108087;1284;22005;-60
2024/01/04 10:11:28;;;;;;;6.10;2.80;;;;;;;16.23;67.97;99073.95;108091;1285;21988;-59
2024/01/04 10:13:54;;;;;;;6.60;3.40;;;;;;;16.27;67.91;99072.67;108104;1280;21997;-62
2024/01/04 10:16:19;;;;;;;5.40;3.20;;;;;;;16.32;67.44;99068.31;108074;1274;21984;-59
2024/01/04 10:18:45;;;;;;;6.00;3.20;;;;;;;16.35;66.64;99063.70;108011;1285;21984;-61
2024/01/04 10:21:10;;;;;;;5.40;3.10;;;;;;;16.39;66.62;99057.62;108053;1274;22013;-59
2024/01/04 10:23:36;;;;;;;5.10;3.40;;;;;;;16.47;66.64;99051.52;108022;1284;21986;-61
2024/01/04 10:26:09;;;;;;;6.60;2.60;;;;;;;16.55;66.55;99049.25;108047;1285;21997;-60
2024/01/04 10:28:39;;;;;;;4.70;3.00;;;;;;;16.64;67.01;99045.02;108072;1285;21984;-59
2024/01/04 10:31:08;;;;;;;5.90;3.10;;;;;;;16.77;66.95;99037.88;108047;1285;22162;-61
2024/01/04 10:33:36;;;;;;;5.50;3.00;;;;;;;16.96;66.76;99035.17;108061;1285;21982;-61
2024/01/04 10:36:09;;;;;;;4.80;2.60;;;;;;;17.09;65.58;99031.77;108163;1271;21986;-61
2024/01/04 10:38:36;;;;;;;4.90;3.00;;;;;;;17.28;66.66;99026.39;108078;1285;22036;-61
2024/01/04 10:41:02;;;;;;;5.60;3.10;;;;;;;17.40;64.70;99023.88;108052;1285;21984;-60
2024/01/04 10:43:30;;;;;;;6.10;2.70;;;;;;;17.52;64.13;99019.72;108020;1285;21991;-59
2024/01/04 10:46:08;;;;;;;5.00;3.20;;;;;;;17.63;63.25;99016.26;108050;1285;22021;-62
2024/01/04 10:48:37;;;;;;;6.00;2.80;;;;;;;17.65;61.37;99015.94;108071;1285;21996;-60
2024/01/04 10:51:05;;;;;;;6.10;2.60;;;;;;;17.74;62.63;99013.59;108041;1285;21986;-62
2024/01/04 10:53:40;;;;;;;7.80;3.00;;;;;;;17.77;62.37;99012.01;108055;1272;21994;-59
2024/01/04 10:56:07;;;;;;;5.00;2.60;;;;;;;17.75;60.14;99010.71;108083;1280;21995;-60
2024/01/04 10:58:33;;;;;;;6.20;2.50;;;;;;;17.80;60.78;99006.11;108031;1285;21984;-60
2024/01/04 11:01:00;;;;;;;5.90;3.20;;;;;;;17.84;58.07;99005.34;108134;1285;22244;-61
2024/01/04 11:03:28;;;;;;;5.60;2.80;;;;;;;17.99;59.14;99002.27;108017;1285;21989;-59
2024/01/04 11:05:54;;;;;;;5.70;2.60;;;;;;;18.20;59.65;98997.90;108035;1285;21989;-61
2024/01/04 11:08:20;;;;;;;6.60;2.90;;;;;;;18.30;58.55;98992.96;108094;1285;21989;-60
2024/01/04 11:10:46;;;;;;;7.10;3.20;;;;;;;18.31;56.48;98988.09;108153;1285;21983;-59
2024/01/04 11:13:12;;;;;;;6.10;2.40;;;;;;;18.36;56.18;98982.27;108148;1277;21989;-60
2024/01/04 11:15:39;;;;;;;6.00;2.90;;;;;;;18.40;56.74;98985.40;108056;1285;22024;-62
2024/01/04 11:18:20;;;;;;;4.90;2.70;;;;;;;18.35;56.75;98983.56;106512;1285;1004201;-60
2024/01/04 11:21:02;;;;;;;5.70;2.70;;;;;;;18.22;56.40;98980.67;108040;1285;23058;-60
2024/01/04 11:23:41;;;;;;;5.10;3.00;;;;;;;18.11;57.36;98978.77;108038;1285;21989;-61